Time;durP1;ratioP1;P1;durP2;ratioP2;P2;SDS_P1;SDS_P2;PMS_P1;PMS_P2;Temp;Humidity;BMP_temperature;BMP_pressure;BME280_temperature;BME280_humidity;BME280_pressure;Samples;Min_cycle;Max_cycle;Signal;HPM_P1;HPM_P2
2022/05/27 00:00:41;;;;;;;17.20;3.17;;;13.00;99.90;;;11.89;100.00;100785.00;4999581;28;20053;-71
2022/05/27 00:03:09;;;;;;;14.57;3.05;;;13.00;99.90;;;11.89;100.00;100776.22;5001146;28;20714;-71
2022/05/27 00:05:34;;;;;;;11.52;3.10;;;13.00;99.90;;;11.88;100.00;100769.25;4993748;28;20100;-71
2022/05/27 00:08:00;;;;;;;11.63;2.78;;;13.00;99.90;;;11.87;100.00;100763.06;5001547;28;20076;-71
2022/05/27 00:10:26;;;;;;;9.57;2.85;;;13.00;99.90;;;11.88;100.00;100750.78;4973528;28;20042;-71
2022/05/27 00:12:53;;;;;;;16.05;3.35;;;13.00;99.90;;;11.90;100.00;100747.13;4994802;28;20034;-71
2022/05/27 00:15:19;;;;;;;14.82;3.20;;;13.00;99.90;;;11.90;100.00;100746.28;4985056;28;20037;-70
2022/05/27 00:17:46;;;;;;;13.60;3.63;;;13.00;99.90;;;11.89;100.00;100728.75;4996299;28;20418;-71
2022/05/27 00:20:13;;;;;;;10.55;2.78;;;13.00;99.90;;;11.91;100.00;100721.59;4998827;28;20053;-72
2022/05/27 00:22:39;;;;;;;8.75;2.92;;;13.00;99.90;;;11.88;100.00;100721.78;4997631;28;20121;-72
2022/05/27 00:25:06;;;;;;;8.25;2.78;;;13.00;99.90;;;11.86;100.00;100715.69;5000369;28;21010;-72
2022/05/27 00:27:31;;;;;;;7.43;2.90;;;13.00;99.90;;;11.88;100.00;100713.84;4998522;28;20042;-72
2022/05/27 00:29:57;;;;;;;5.85;2.65;;;13.00;99.90;;;11.86;100.00;100710.41;5009285;28;20034;-71
2022/05/27 00:32:23;;;;;;;7.30;2.58;;;13.00;99.90;;;11.83;100.00;100710.56;5000623;28;20042;-72
2022/05/27 00:34:48;;;;;;;;;;;13.00;99.90;;;11.79;100.00;100704.59;4993624;28;20026;-72
2022/05/27 00:37:15;;;;;;;4.05;2.15;;;12.90;99.90;;;11.75;100.00;100705.69;5018323;28;19922;-72
2022/05/27 00:39:41;;;;;;;5.40;2.63;;;12.90;99.90;;;11.81;100.00;100704.50;4979382;28;20579;-72
2022/05/27 00:42:07;;;;;;;4.15;2.42;;;12.90;99.90;;;11.82;100.00;100696.50;4988174;28;20269;-72
2022/05/27 00:44:34;;;;;;;5.78;2.83;;;13.00;99.90;;;11.87;100.00;100698.91;4997616;28;20030;-72
2022/05/27 00:47:13;;;;;;;7.38;2.92;;;13.00;99.90;;;11.89;100.00;100697.06;4999177;28;20169;-72
2022/05/27 00:49:56;;;;;;;4.50;2.40;;;13.00;99.90;;;11.88;100.00;100690.09;4985690;28;20055;-72
2022/05/27 00:52:31;;;;;;;4.90;2.35;;;13.00;99.90;;;11.92;100.00;100686.34;4992670;28;20451;-72
2022/05/27 00:54:56;;;;;;;3.50;2.17;;;13.00;99.90;;;11.92;100.00;100691.63;4995938;28;20104;-71
2022/05/27 00:57:35;;;;;;;5.80;2.40;;;13.00;99.90;;;11.95;100.00;100685.38;4997544;28;20436;-73
2022/05/27 01:00:09;;;;;;;3.72;2.03;;;13.00;99.90;;;11.95;100.00;100680.94;4996654;28;20026;-72
2022/05/27 01:02:36;;;;;;;2.88;2.22;;;13.10;99.90;;;11.97;100.00;100673.78;4995127;28;21913;-73
2022/05/27 01:05:05;;;;;;;5.60;2.40;;;13.10;99.90;;;11.98;100.00;100664.91;5010236;28;20044;-72
2022/05/27 01:07:31;;;;;;;4.47;2.70;;;13.10;99.90;;;12.00;100.00;100665.69;4997500;28;20030;-73
2022/05/27 01:09:58;;;;;;;3.50;2.40;;;13.10;99.90;;;12.07;100.00;100663.56;4972424;28;20034;-72
2022/05/27 01:13:17;;;;;;;5.35;2.50;;;13.10;99.90;;;12.06;100.00;100665.38;4992315;28;20258;-72
2022/05/27 01:16:12;;;;;;;3.63;2.35;;;13.20;99.90;;;12.09;100.00;100672.25;4986161;28;20763;-71
2022/05/27 01:22:32;;;;;;;5.15;2.33;;;13.20;99.90;;;12.17;100.00;100658.66;5000599;28;20048;-71
2022/05/27 01:25:34;;;;;;;5.35;3.00;;;13.20;99.90;;;12.17;100.00;100670.06;4996817;28;20496;-71
2022/05/27 01:28:34;;;;;;;4.53;2.47;;;13.30;99.90;;;12.22;100.00;100667.19;4994650;28;20436;-71
2022/05/27 01:32:11;;;;;;;5.05;2.67;;;13.30;99.90;;;12.24;100.00;100663.50;4998020;28;20457;-71
2022/05/27 01:35:01;;;;;;;3.72;3.08;;;13.30;99.90;;;12.25;100.00;100667.03;4990212;28;20044;-71
2022/05/27 01:38:11;;;;;;;5.85;3.38;;;13.40;99.90;;;12.30;100.00;100659.69;4980979;28;20629;-71
2022/05/27 01:40:48;;;;;;;6.10;3.95;;;13.40;99.90;;;12.35;100.00;100662.91;4998184;28;20517;-71
2022/05/27 01:43:29;;;;;;;4.50;3.28;;;13.40;99.90;;;12.39;100.00;100661.81;4984264;28;20026;-72
2022/05/27 01:46:16;;;;;;;7.68;3.85;;;13.40;99.90;;;12.40;100.00;100658.25;4983525;28;20056;-71
2022/05/27 01:49:35;;;;;;;8.23;3.72;;;13.40;99.90;;;12.41;100.00;100654.66;4988541;28;20015;-72
2022/05/27 01:52:43;;;;;;;5.68;3.80;;;13.40;99.90;;;12.37;100.00;100639.94;4991957;28;20025;-71
2022/05/27 01:55:18;;;;;;;;;;;13.40;99.90;;;12.25;100.00;100641.47;4997952;28;20021;-71
2022/05/27 01:58:02;;;;;;;8.93;4.18;;;13.30;99.90;;;12.17;100.00;100640.19;4978608;28;19936;-72
2022/05/27 02:00:29;;;;;;;10.10;4.38;;;13.20;99.90;;;12.13;100.00;100630.72;4997229;28;20022;-71
2022/05/27 02:03:21;;;;;;;6.07;4.30;;;13.20;99.90;;;12.06;100.00;100633.69;4988557;28;20030;-71
2022/05/27 02:06:07;;;;;;;11.68;4.70;;;13.10;99.90;;;11.98;100.00;100635.88;4996862;28;20767;-72
2022/05/27 02:08:48;;;;;;;13.15;5.40;;;13.00;99.90;;;11.89;100.00;100639.88;4996068;28;20026;-71
2022/05/27 02:11:19;;;;;;;14.88;4.50;;;13.00;99.90;;;11.84;100.00;100635.78;4979531;28;20019;-71
2022/05/27 02:14:14;;;;;;;11.15;5.10;;;12.90;99.90;;;11.81;100.00;100635.91;4995059;28;20050;-72
2022/05/27 02:16:54;;;;;;;9.55;4.75;;;12.90;99.90;;;11.77;100.00;100629.09;4993500;28;20018;-72
2022/05/27 02:19:50;;;;;;;12.90;4.85;;;12.80;99.90;;;11.73;100.00;100627.53;5003163;28;20044;-73
2022/05/27 02:22:26;;;;;;;10.05;4.72;;;12.80;99.90;;;11.69;100.00;100640.06;4996228;28;20173;-71
2022/05/27 02:25:06;;;;;;;13.32;5.00;;;12.80;99.90;;;11.66;100.00;100651.63;4979772;28;20080;-72
2022/05/27 02:28:09;;;;;;;14.98;5.65;;;12.70;99.90;;;11.64;100.00;100655.25;4980229;28;20034;-71
2022/05/27 02:30:38;;;;;;;8.90;5.03;;;12.70;99.90;;;11.62;100.00;100654.47;4992753;28;20026;-71
2022/05/27 02:35:59;;;;;;;12.13;5.00;;;12.70;99.90;;;11.68;100.00;100662.09;4992391;28;20429;-72
2022/05/27 02:38:27;;;;;;;16.58;4.80;;;12.80;99.90;;;11.74;100.00;100663.56;4995122;28;20073;-71
2022/05/27 02:41:18;;;;;;;13.70;5.10;;;12.80;99.90;;;11.82;100.00;100656.09;4993336;28;20168;-71
2022/05/27 02:44:11;;;;;;;14.23;4.30;;;12.90;99.90;;;11.84;100.00;100651.59;4995367;28;20375;-72
2022/05/27 02:47:09;;;;;;;11.88;4.38;;;12.90;99.90;;;11.90;100.00;100652.16;4941233;28;20045;-71
2022/05/27 02:49:47;;;;;;;;;;;12.90;99.90;;;11.90;100.00;100644.25;4998506;28;20103;-71
2022/05/27 02:52:53;;;;;;;15.88;4.60;;;13.00;99.90;;;11.95;100.00;100643.97;4980989;28;20595;-70
2022/05/27 02:55:31;;;;;;;14.40;4.45;;;13.00;99.90;;;11.97;100.00;100646.56;4996419;28;20719;-71
2022/05/27 02:58:01;;;;;;;25.27;4.20;;;13.10;99.90;;;12.02;100.00;100655.91;4994592;28;20421;-71
2022/05/27 03:00:34;;;;;;;16.25;4.78;;;13.10;99.90;;;12.07;100.00;100651.25;4996687;28;20042;-71
2022/05/27 03:03:00;;;;;;;15.07;4.05;;;13.10;99.90;;;12.11;100.00;100651.91;4992022;28;20092;-71
2022/05/27 03:05:51;;;;;;;11.23;3.83;;;13.20;99.90;;;12.16;100.00;100641.97;4992874;28;20558;-71
2022/05/27 03:08:32;;;;;;;14.35;4.20;;;13.20;99.90;;;12.21;100.00;100629.38;4976396;28;20022;-71
2022/05/27 03:11:31;;;;;;;13.73;3.65;;;13.30;99.90;;;12.27;100.00;100625.56;4995613;28;20029;-71
2022/05/27 03:14:18;;;;;;;11.88;3.50;;;13.30;99.90;;;12.28;100.00;100638.66;4982251;28;20126;-71
2022/05/27 03:17:27;;;;;;;14.27;3.50;;;13.30;99.90;;;12.29;100.00;100647.44;4995990;28;20037;-71
2022/05/27 03:20:22;;;;;;;16.75;3.80;;;13.30;99.90;;;12.26;100.00;100655.50;4992354;28;20053;-71
2022/05/27 03:23:16;;;;;;;12.43;3.50;;;13.30;99.90;;;12.26;100.00;100668.72;5010985;28;20406;-71
2022/05/27 03:26:02;;;;;;;11.50;3.30;;;13.30;99.90;;;12.24;100.00;100657.38;4978265;28;20034;-71
2022/05/27 03:29:04;;;;;;;15.90;3.97;;;13.30;99.90;;;12.25;100.00;100640.63;4995016;28;20108;-71
2022/05/27 03:31:59;;;;;;;16.95;3.55;;;13.30;99.90;;;12.31;100.00;100629.72;4995438;28;20033;-71
2022/05/27 03:34:37;;;;;;;16.17;4.50;;;13.30;99.90;;;12.29;100.00;100653.56;4997417;28;20046;-71
2022/05/27 03:37:37;;;;;;;14.48;4.00;;;13.30;99.90;;;12.30;100.00;100636.78;4992052;28;20018;-71
2022/05/27 03:40:30;;;;;;;16.73;3.90;;;13.30;99.90;;;12.30;100.00;100613.00;4980757;28;20041;-70
2022/05/27 03:42:57;;;;;;;15.40;3.92;;;13.30;99.90;;;12.29;100.00;100607.84;5020374;28;20060;-71
2022/05/27 03:45:24;;;;;;;21.45;4.97;;;13.30;99.90;;;12.27;100.00;100618.47;4986751;28;20026;-71
2022/05/27 03:47:52;;;;;;;14.93;4.03;;;13.30;99.90;;;12.27;100.00;100621.13;4996340;28;20034;-71
2022/05/27 03:50:25;;;;;;;17.40;4.35;;;13.40;99.90;;;12.37;100.00;100625.88;4992584;28;20033;-71
2022/05/27 03:52:55;;;;;;;26.20;3.97;;;13.40;99.90;;;12.37;100.00;100624.09;4990687;28;20762;-71
2022/05/27 03:55:26;;;;;;;21.25;4.55;;;13.40;99.90;;;12.41;100.00;100630.91;4994880;28;20394;-74
2022/05/27 03:57:52;;;;;;;15.48;4.13;;;13.40;99.90;;;12.44;100.00;100643.06;4983061;28;20097;-73
2022/05/27 04:00:18;;;;;;;13.18;3.60;;;13.40;99.90;;;12.52;100.00;100641.72;4989288;28;20490;-73
2022/05/27 04:02:45;;;;;;;17.33;4.18;;;13.60;99.90;;;12.94;100.00;100652.59;4997542;28;20022;-73
2022/05/27 04:05:16;;;;;;;14.85;3.95;;;14.90;99.90;;;14.90;100.00;100652.06;4998001;28;20100;-73
2022/05/27 04:07:44;;;;;;;21.80;3.40;;;16.80;99.90;;;17.16;94.67;100663.63;4998875;28;20026;-73
2022/05/27 04:10:10;;;;;;;11.15;3.30;;;18.60;99.90;;;18.96;79.50;100664.66;5000748;28;20026;-73
2022/05/27 04:12:36;;;;;;;9.23;2.63;;;19.60;99.90;;;19.57;71.92;100667.50;4987567;28;20394;-73
2022/05/27 04:15:05;;;;;;;19.08;2.95;;;19.90;99.90;;;19.78;69.86;100683.53;4995424;28;20041;-74
2022/05/27 04:17:31;;;;;;;14.93;2.72;;;20.50;99.90;;;20.62;66.81;100690.50;4997839;28;20029;-74
2022/05/27 04:20:09;;;;;;;20.40;2.97;;;20.70;99.90;;;20.78;65.36;100709.56;4984775;28;20061;-74
2022/05/27 04:22:36;;;;;;;14.88;3.00;;;21.90;99.90;;;22.25;60.24;100704.94;4987068;28;20022;-73
2022/05/27 04:25:03;;;;;;;11.73;2.42;;;22.90;99.90;;;23.17;56.63;100711.16;4999100;28;20025;-73
2022/05/27 04:27:29;;;;;;;15.70;2.67;;;24.00;99.90;;;24.22;53.90;100722.88;4995992;28;20092;-74
2022/05/27 04:29:55;;;;;;;11.82;2.65;;;24.60;99.90;;;24.65;51.15;100732.66;4996029;28;20430;-73
2022/05/27 04:32:22;;;;;;;12.63;2.25;;;24.00;99.60;;;22.46;53.88;100739.56;5000545;28;20132;-74
2022/05/27 04:34:49;;;;;;;10.57;2.22;;;23.00;99.90;;;22.57;54.40;100747.44;4990009;28;20117;-74
2022/05/27 04:37:16;;;;;;;13.45;2.47;;;23.10;99.40;;;23.41;51.47;100749.00;4997232;28;20395;-74
2022/05/27 04:39:42;;;;;;;15.98;2.63;;;23.40;99.20;;;24.40;49.01;100755.06;4997515;28;20104;-74
2022/05/27 04:42:09;;;;;;;17.83;2.55;;;23.80;98.80;;;24.77;47.95;100760.13;5014941;28;20041;-73
2022/05/27 04:44:35;;;;;;;15.90;2.10;;;24.30;98.20;;;25.64;45.86;100778.66;5000823;28;20052;-73
2022/05/27 04:47:01;;;;;;;11.70;2.10;;;24.80;97.30;;;26.39;44.15;100794.59;4995016;28;20033;-74
2022/05/27 04:52:11;;;;;;;12.00;2.22;;;25.60;96.90;;;27.55;42.44;100803.84;4996784;28;20196;-74
2022/05/27 04:54:37;;;;;;;11.95;2.42;;;25.40;95.10;;;25.02;44.92;100793.38;4998300;28;20438;-74
2022/05/27 04:57:03;;;;;;;15.77;2.38;;;24.10;96.00;;;22.47;49.55;100782.34;4998277;28;20971;-73
2022/05/27 04:59:29;;;;;;;11.90;2.30;;;22.80;96.40;;;20.71;52.65;100774.44;4998290;28;20595;-74
2022/05/27 05:01:54;;;;;;;15.32;2.50;;;21.20;99.10;;;18.83;57.87;100768.84;5004869;28;20105;-74
2022/05/27 05:04:20;;;;;;;;;;;21.00;99.90;;;17.18;60.55;100756.66;5007211;28;20119;-74
2022/05/27 05:06:46;;;;;;;17.25;2.72;;;18.70;99.90;;;16.79;63.90;100762.06;4999654;28;19929;-73
2022/05/27 05:09:12;;;;;;;14.27;2.42;;;18.10;99.90;;;17.12;63.53;100763.25;4996230;28;20528;-73
2022/05/27 05:11:38;;;;;;;;;;;18.10;99.90;;;16.10;65.55;100756.31;4997707;28;20034;-73
2022/05/27 05:14:03;;;;;;;11.70;2.15;;;17.20;99.90;;;15.66;68.38;100754.88;5013257;28;20374;-74
2022/05/27 05:16:29;;;;;;;;;;;17.10;99.90;;;17.91;66.07;100746.78;4991388;28;20073;-73
2022/05/27 05:18:55;;;;;;;14.27;1.70;;;18.20;99.90;;;21.06;54.82;100763.28;4999474;28;19922;-73
2022/05/27 05:21:21;;;;;;;;;;;18.40;99.90;;;20.83;51.03;100757.31;5001663;28;20030;-74
2022/05/27 05:23:47;;;;;;;12.52;2.45;;;19.40;99.90;;;19.37;55.17;100769.78;5011189;28;19910;-74
2022/05/27 05:26:12;;;;;;;16.85;2.20;;;18.80;99.90;;;18.70;59.03;100782.28;5000802;28;20033;-73
2022/05/27 05:28:38;;;;;;;;;;;18.90;99.90;;;16.66;61.00;100755.94;4987356;28;20505;-75
2022/05/27 05:31:06;;;;;;;14.57;2.22;;;17.60;99.90;;;16.18;64.43;100758.44;4984459;28;20335;-74
2022/05/27 05:33:32;;;;;;;14.55;2.55;;;17.20;99.90;;;15.82;64.98;100762.66;4997647;28;20045;-73
2022/05/27 05:35:58;;;;;;;9.73;2.15;;;16.60;99.90;;;15.22;67.04;100758.66;4989184;28;20022;-73
2022/05/27 05:38:26;;;;;;;14.00;2.33;;;16.80;99.90;;;18.53;61.30;100765.00;4996449;28;20518;-73
2022/05/27 05:40:51;;;;;;;10.85;1.80;;;17.90;99.90;;;21.22;52.08;100781.47;4995269;28;20049;-74
2022/05/27 05:43:17;;;;;;;14.02;2.45;;;19.30;99.90;;;23.19;47.15;100797.81;4997975;28;20084;-74
2022/05/27 05:45:43;;;;;;;;;;;19.60;99.90;;;23.91;43.62;100807.56;4994580;28;20026;-73
2022/05/27 05:48:09;;;;;;;18.08;2.60;;;21.80;99.60;;;25.34;42.95;100827.66;4994647;28;19915;-73
2022/05/27 05:50:34;;;;;;;16.13;2.70;;;22.80;98.20;;;26.48;40.43;100833.22;4972088;28;20044;-73
2022/05/27 05:53:00;;;;;;;18.27;3.08;;;24.00;96.40;;;28.06;38.07;100849.28;5084313;23;20052;-76
2022/05/27 05:55:31;;;;;;;;;;;24.20;97.70;;;24.84;40.06;100847.34;5033575;28;20550;-76
2022/05/27 05:57:57;;;;;;;14.50;2.47;;;23.50;94.70;;;22.23;46.05;100836.50;5018914;28;19975;-75
2022/05/27 06:00:25;;;;;;;18.98;2.40;;;21.40;95.80;;;19.13;51.90;100815.38;5013935;28;20477;-76
2022/05/27 06:02:52;;;;;;;8.43;1.35;;;20.40;97.20;;;18.20;53.39;100813.78;4992243;28;20082;-75
2022/05/27 06:05:19;;;;;;;8.52;1.42;;;18.70;99.30;;;16.86;58.30;100812.19;5025205;28;20032;-76
2022/05/27 06:07:45;;;;;;;6.22;1.60;;;18.90;99.90;;;19.92;53.68;100817.78;4963283;28;20028;-76
2022/05/27 06:10:13;;;;;;;12.63;2.45;;;19.50;99.30;;;20.22;49.81;100823.19;4991425;28;20047;-76
2022/05/27 06:12:39;;;;;;;13.07;2.03;;;19.90;98.80;;;19.79;50.28;100823.31;5012582;28;20025;-76
2022/05/27 06:15:10;;;;;;;13.25;1.98;;;20.30;98.60;;;22.35;46.37;100836.31;5011773;28;20125;-75
2022/05/27 06:17:36;;;;;;;12.55;2.03;;;19.90;97.30;;;19.25;49.69;100835.72;4995740;28;20044;-75
2022/05/27 06:20:05;;;;;;;13.57;1.80;;;20.10;97.70;;;21.15;48.08;100839.25;5023603;28;20116;-76
2022/05/27 06:22:32;;;;;;;17.55;2.42;;;20.70;98.30;;;22.57;45.77;100853.88;4978182;28;20667;-76
2022/05/27 06:25:00;;;;;;;9.95;1.88;;;21.60;96.30;;;23.65;42.48;100861.25;4999970;28;20501;-76
2022/05/27 06:27:27;;;;;;;11.93;2.00;;;22.30;96.10;;;23.54;42.31;100864.16;5022808;28;20040;-75
2022/05/27 06:35:40;;;;;;;15.13;2.70;;;23.00;92.40;;;21.75;44.45;100868.66;4952619;28;20502;-76
2022/05/27 06:38:06;;;;;;;7.57;1.60;;;23.00;93.20;;;23.69;41.22;100883.28;4961061;28;20040;-75
2022/05/27 06:40:32;;;;;;;9.88;1.70;;;23.20;93.70;;;24.00;41.53;100896.41;5008502;28;20017;-76
2022/05/27 06:42:57;;;;;;;16.40;2.50;;;23.50;93.70;;;24.36;41.51;100891.78;5031650;28;20581;-76
2022/05/27 06:45:24;;;;;;;13.73;2.75;;;23.30;92.90;;;22.58;42.79;100896.69;5033546;28;20034;-76
2022/05/27 06:47:50;;;;;;;6.50;1.48;;;22.00;93.70;;;19.61;47.20;100876.41;5006564;28;20030;-76
2022/05/27 06:50:16;;;;;;;13.63;2.22;;;20.70;94.10;;;18.59;49.69;100886.28;4997943;28;20131;-75
2022/05/27 06:52:42;;;;;;;9.77;1.63;;;20.20;95.80;;;20.28;47.78;100891.34;5027908;28;20444;-76
2022/05/27 06:55:12;;;;;;;18.98;2.50;;;21.00;96.20;;;21.74;45.16;100897.31;5039861;28;20407;-76
2022/05/27 06:57:38;;;;;;;9.82;2.10;;;21.10;94.70;;;20.36;46.46;100894.19;4992639;28;22301;-76
2022/05/27 07:00:08;;;;;;;10.32;1.80;;;20.60;94.90;;;19.16;48.34;100885.38;5001478;28;20536;-75
2022/05/27 07:02:34;;;;;;;16.15;1.80;;;19.40;95.80;;;17.45;51.76;100875.31;5035416;28;20072;-76
2022/05/27 07:05:00;;;;;;;14.32;2.60;;;18.50;97.20;;;16.84;53.83;100884.09;5015725;28;20028;-76
2022/05/27 07:07:29;;;;;;;15.55;2.42;;;18.90;98.60;;;19.64;49.96;100881.50;5001209;28;20048;-76
2022/05/27 07:09:55;;;;;;;13.25;1.83;;;19.70;97.60;;;19.80;48.49;100889.97;4992224;28;20036;-77
2022/05/27 07:12:21;;;;;;;11.10;1.80;;;19.80;97.00;;;19.20;49.01;100891.28;5009773;28;20485;-77
2022/05/27 07:14:46;;;;;;;9.73;1.67;;;19.10;97.00;;;17.17;53.10;100861.34;5010647;28;20040;-76
2022/05/27 07:17:12;;;;;;;;;;;18.60;97.60;;;15.98;57.31;100874.88;4994764;28;20509;-76
2022/05/27 07:19:39;;;;;;;15.25;2.33;;;17.80;99.90;;;16.83;57.42;100886.88;5010512;28;19927;-75
2022/05/27 07:22:07;;;;;;;13.45;2.50;;;17.80;99.90;;;16.82;56.27;100886.00;5014641;28;20044;-76
2022/05/27 07:24:32;;;;;;;13.77;2.22;;;18.30;99.90;;;18.97;52.02;100883.31;5010273;28;20041;-75
2022/05/27 07:26:58;;;;;;;13.25;2.13;;;19.50;98.80;;;20.72;47.65;100909.94;5009390;28;20038;-76
2022/05/27 07:29:24;;;;;;;;;;;19.60;99.30;;;21.40;44.33;100905.66;5000575;28;20126;-77
2022/05/27 07:31:49;;;;;;;7.03;1.70;;;21.20;95.20;;;21.58;43.33;100913.09;5023160;28;19905;-77
2022/05/27 07:34:15;;;;;;;12.13;1.65;;;21.30;93.00;;;21.00;43.45;100922.59;5032607;28;20509;-76
2022/05/27 07:36:41;;;;;;;17.13;1.42;;;21.50;93.00;;;21.38;42.50;100923.72;5014808;28;20029;-76
2022/05/27 07:39:07;;;;;;;;;;;21.60;93.30;;;20.76;41.56;100930.94;5024384;28;20727;-76
2022/05/27 07:41:37;;;;;;;11.13;1.17;;;21.30;91.70;;;20.73;41.95;100925.00;5012218;28;19912;-76
2022/05/27 07:44:04;;;;;;;7.38;1.80;;;21.10;92.50;;;20.78;43.44;100930.81;5016634;28;20068;-76
2022/05/27 07:46:33;;;;;;;11.05;2.15;;;21.10;92.40;;;20.23;43.38;100936.31;5010283;28;20065;-76
2022/05/27 07:49:08;;;;;;;14.13;1.75;;;20.50;92.20;;;19.51;44.59;100918.22;5013893;28;20036;-76
2022/05/27 07:51:34;;;;;;;10.73;1.80;;;20.50;94.30;;;19.90;45.67;100922.13;5025529;28;20024;-76
2022/05/27 07:54:00;;;;;;;10.38;1.70;;;20.10;92.50;;;19.50;44.03;100921.84;5008594;28;20052;-76
2022/05/27 07:56:25;;;;;;;11.70;2.05;;;20.00;94.20;;;19.03;45.99;100917.53;5014663;28;20032;-76
2022/05/27 07:58:51;;;;;;;11.52;1.90;;;19.60;95.50;;;18.33;48.67;100922.97;5005313;28;20057;-76
2022/05/27 08:01:17;;;;;;;;;;;19.50;95.60;;;18.08;44.70;100924.84;4986657;28;20065;-76
2022/05/27 08:03:45;;;;;;;3.83;1.20;;;18.40;92.80;;;16.81;46.22;100914.41;5006410;28;20334;-76
2022/05/27 08:06:11;;;;;;;6.30;1.65;;;18.30;93.80;;;16.47;48.02;100918.50;5018493;28;20505;-76
2022/05/27 08:08:37;;;;;;;9.93;1.75;;;17.80;95.70;;;17.44;48.57;100917.06;5020951;28;20021;-76
2022/05/27 08:11:04;;;;;;;13.52;1.85;;;18.60;97.00;;;19.37;47.03;100913.97;5007485;28;20126;-76
2022/05/27 08:13:29;;;;;;;14.73;1.63;;;19.20;95.20;;;18.93;46.40;100931.72;5006568;28;21474;-76
2022/05/27 08:15:58;;;;;;;26.45;2.28;;;18.30;96.40;;;16.66;51.39;100926.09;5055478;28;20037;-76
2022/05/27 08:18:27;;;;;;;19.63;2.75;;;17.40;99.30;;;15.46;57.98;100923.34;5027595;28;20472;-76
2022/05/27 08:20:53;;;;;;;15.40;2.50;;;16.90;99.90;;;15.74;58.11;100911.88;4986792;28;20563;-75
2022/05/27 08:23:19;;;;;;;15.73;2.55;;;17.00;99.90;;;16.87;57.50;100898.97;5014907;28;20128;-76
2022/05/27 08:25:44;;;;;;;;;;;17.20;99.90;;;17.35;56.80;100902.63;5037548;28;20358;-75
2022/05/27 08:28:10;;;;;;;9.32;2.00;;;17.90;99.90;;;18.20;54.84;100891.91;5003496;28;19908;-76
2022/05/27 08:30:40;;;;;;;;;;;17.90;99.90;;;17.49;54.11;100885.63;5007283;28;20025;-75
2022/05/27 08:33:07;;;;;;;13.10;1.90;;;17.80;99.40;;;16.77;55.64;100869.50;5025059;28;19924;-76
2022/05/27 08:38:26;;;;;;;18.08;2.40;;;17.10;98.60;;;16.34;54.82;100875.97;5017905;28;20052;-75
2022/05/27 08:41:24;;;;;;;10.15;2.22;;;17.30;98.60;;;17.05;53.55;100881.72;5017902;28;20033;-74
2022/05/27 08:44:14;;;;;;;12.73;1.98;;;17.80;98.00;;;17.53;51.79;100880.94;5012418;28;20045;-76
2022/05/27 08:46:59;;;;;;;13.50;2.00;;;17.60;96.90;;;16.57;52.33;100889.50;5013006;28;20095;-75
2022/05/27 08:49:33;;;;;;;13.80;2.20;;;17.40;98.90;;;16.53;53.81;100885.34;5018519;28;20082;-75
2022/05/27 08:52:37;;;;;;;10.55;1.98;;;17.60;97.70;;;17.12;50.22;100888.28;5015266;28;20489;-75
2022/05/27 09:01:36;;;;;;;5.45;1.58;;;17.40;96.70;;;16.50;50.26;100878.44;5009964;28;20079;-76
2022/05/27 09:04:24;;;;;;;11.55;2.00;;;17.10;96.40;;;16.14;51.17;100879.16;4986474;28;20024;-76
2022/05/27 09:06:57;;;;;;;9.95;2.10;;;17.20;97.40;;;16.33;52.02;100884.91;4993215;28;20028;-76
2022/05/27 09:09:30;;;;;;;9.90;1.77;;;17.10;96.60;;;16.33;50.67;100884.06;5011598;28;20039;-76
2022/05/27 09:12:52;;;;;;;13.68;2.15;;;17.10;95.90;;;16.33;50.97;100884.06;5012706;28;20128;-75
2022/05/27 09:15:51;;;;;;;8.40;1.75;;;17.30;95.70;;;16.87;49.41;100880.34;4997805;28;20017;-75
2022/05/27 09:19:00;;;;;;;12.70;1.20;;;17.60;93.80;;;16.98;45.79;100891.94;5018203;28;20028;-75
2022/05/27 09:22:12;;;;;;;6.00;1.20;;;17.60;96.50;;;17.00;48.82;100889.19;5016653;28;20025;-75
2022/05/27 09:25:21;;;;;;;6.80;1.45;;;17.80;93.90;;;16.57;45.82;100877.06;5012052;28;20036;-75
2022/05/27 09:28:27;;;;;;;10.25;1.95;;;17.50;95.00;;;16.88;48.97;100882.06;5007309;28;20022;-76
2022/05/27 09:30:57;;;;;;;10.35;1.90;;;18.00;96.00;;;17.81;47.42;100891.25;5013775;28;20025;-75
2022/05/27 09:33:26;;;;;;;10.15;1.95;;;18.60;94.10;;;18.48;45.36;100896.94;5001061;28;20512;-76
2022/05/27 09:36:15;;;;;;;9.68;1.92;;;19.00;94.00;;;18.71;44.52;100905.84;5001612;28;20028;-76
2022/05/27 09:39:00;;;;;;;10.27;1.73;;;19.10;92.40;;;18.63;44.37;100903.75;5004560;28;20029;-76
2022/05/27 09:42:17;;;;;;;9.27;1.70;;;19.30;94.00;;;18.85;44.58;100916.28;5006201;28;20038;-76
2022/05/27 09:44:58;;;;;;;8.95;1.60;;;19.40;92.60;;;18.85;43.75;100914.50;5025652;28;20037;-76
2022/05/27 09:47:32;;;;;;;11.18;1.63;;;19.30;92.20;;;18.61;43.54;100911.88;5023284;28;20040;-76
2022/05/27 09:50:34;;;;;;;7.40;1.30;;;19.20;92.90;;;18.33;44.73;100909.63;4991109;28;20077;-76
2022/05/27 09:53:01;;;;;;;6.43;1.38;;;19.10;92.40;;;18.47;44.17;100914.78;4971422;28;20043;-76
2022/05/27 09:55:52;;;;;;;10.43;1.80;;;19.20;91.60;;;18.64;42.88;100926.81;4999017;28;20049;-76
2022/05/27 09:58:32;;;;;;;9.07;1.55;;;19.20;92.60;;;18.63;44.29;100917.94;4980394;28;20046;-75
2022/05/27 10:01:22;;;;;;;7.70;1.58;;;19.50;93.90;;;19.12;44.56;100909.78;5031752;28;20072;-75
2022/05/27 10:04:07;;;;;;;6.78;1.50;;;19.80;91.40;;;19.57;42.45;100931.06;4991495;28;20033;-75
2022/05/27 10:06:40;;;;;;;4.75;1.13;;;20.00;91.50;;;19.24;41.81;100925.66;4994134;28;20075;-77
2022/05/27 10:09:35;;;;;;;11.35;1.63;;;19.70;90.30;;;18.38;42.00;100936.78;5002597;28;20448;-77
2022/05/27 10:12:10;;;;;;;9.20;1.50;;;19.30;91.80;;;18.13;44.38;100932.47;4999916;28;20036;-76
2022/05/27 10:14:55;;;;;;;8.48;1.70;;;18.70;91.60;;;17.29;45.23;100936.81;5027595;28;20025;-76
2022/05/27 10:17:38;;;;;;;6.80;1.65;;;18.10;92.20;;;16.78;46.07;100954.50;4979318;28;20075;-76
2022/05/27 10:20:34;;;;;;;31.90;2.53;;;17.30;97.10;;;15.49;53.25;100999.28;5014215;28;20644;-76
2022/05/27 10:23:22;;;;;;;10.98;1.45;;;16.30;99.70;;;13.61;61.39;101022.63;4984343;23;20116;-76
2022/05/27 10:25:51;;;;;;;6.93;1.08;;;15.00;99.90;;;12.36;66.68;101039.59;4970911;28;20057;-77
2022/05/27 10:28:32;;;;;;;4.90;0.77;;;13.90;99.90;;;11.26;70.69;101006.88;4976492;28;20739;-77
2022/05/27 10:31:16;;;;;;;7.05;0.80;;;13.10;99.90;;;10.69;73.85;100961.13;4964937;28;20076;-77
2022/05/27 10:33:53;;;;;;;4.60;0.98;;;12.60;99.90;;;10.79;75.96;100915.00;4995928;28;20035;-75
2022/05/27 10:37:28;;;;;;;7.22;0.75;;;12.60;99.90;;;11.57;78.11;100905.25;4999961;28;20071;-76
2022/05/27 10:40:20;;;;;;;9.25;0.93;;;13.10;99.90;;;12.75;77.77;100880.00;4938092;28;20038;-76
2022/05/27 10:43:21;;;;;;;4.72;0.90;;;13.80;99.90;;;13.76;76.03;100857.72;4984459;28;20584;-76
2022/05/27 10:45:53;;;;;;;3.22;0.60;;;14.50;99.90;;;14.44;74.22;100845.75;5009973;28;20486;-75
2022/05/27 10:48:43;;;;;;;8.07;1.40;;;15.10;99.90;;;14.93;72.82;100832.16;5014149;28;20064;-76
2022/05/27 10:51:50;;;;;;;5.63;1.08;;;15.60;99.90;;;15.40;70.43;100825.59;4971354;28;20147;-75
2022/05/27 10:54:39;;;;;;;4.83;1.13;;;16.00;99.90;;;15.57;67.15;100819.16;4997993;28;20043;-76
2022/05/27 11:04:43;;;;;;;11.75;1.75;;;17.20;99.90;;;16.69;65.51;100798.25;5003992;28;20056;-74
2022/05/27 11:07:38;;;;;;;10.38;1.65;;;17.50;99.90;;;16.87;64.84;100796.13;5004200;28;20025;-75
2022/05/27 11:10:25;;;;;;;14.85;2.08;;;17.70;99.90;;;17.15;62.87;100810.09;5014173;28;20041;-74
2022/05/27 11:16:46;;;;;;;12.88;2.63;;;17.90;99.90;;;17.06;59.67;100803.59;5002231;28;20131;-75
2022/05/27 11:19:33;;;;;;;13.23;2.47;;;17.60;99.90;;;16.52;61.22;100811.88;4987037;28;20029;-75
2022/05/27 11:22:53;;;;;;;13.88;2.30;;;17.10;99.90;;;15.34;63.19;100864.00;5016936;28;20109;-75